Delray Beach, FL

12:13 PM EDT on June 03, 2015 (GMT -0400)
Palm Beach International | | Change Station
CLOSE
Current Station
Airport
Location: West Palm Beach,
Elevation: 20 ft
Nearby Weather Stations

Elev 20 ft 26.68 °N, 80.10 °W | Updated 20 minutes ago

Mostly Cloudy
Mostly Cloudy
83 °F
Feels Like 85 °F
N
12
Wind Variable Wind from NE

Today
High -- | Low -- °F
--% Chance of Precip.
Yesterday
High -- | Low -- °F
Precip. -- in
6:27 AM 8:09 PM
Full, 99% visible
Pressure 29.97 in
Visibility 10.0 miles
Clouds Few 3100 ft
Mostly Cloudy 4700 ft
Mostly Cloudy 6000 ft
Heat Index 85 °F
Dew Point 66 °F
Humidity 56%
Rainfall 0.99 in
Snow Depth Not available.
UV 8 out of 12
Pollen .50 out of 12
Air Quality Not available.
Flu Activity Sporadic
METAR KPBI 031553Z 05010KT 10SM FEW031 BKN047 BKN060 28/19 A2997 RMK AO2 SLP148 T02830189

More Conditions Fewer Conditions

Pressure 29.97 in
Visibility 10.0 miles
Clouds Few 3100 ft
Mostly Cloudy 4700 ft
Mostly Cloudy 6000 ft
Heat Index 85 °F
Dew Point 66 °F
Humidity 56%
Rainfall 0.99 in
Snow Depth Not available.
UV 8 out of 12
Pollen .50 out of 12
Air Quality Not available.
Flu Activity Sporadic
METAR KPBI 031553Z 05010KT 10SM FEW031 BKN047 BKN060 28/19 A2997 RMK AO2 SLP148 T02830189

More Conditions Fewer Conditions

Nowcast | as of 12:00 PM EDT on June 3, 2015

Through early this afternoon...isolated showers will continue to develop over the East Coast Metro areas of South Florida and move slowly to the north. Rainfall amounts from the heavies showers will be around half an inch.

×

10-Day Weather Forecast

×

Almanac

Astronomy

Jun. 03, 2015 Rise Set
Actual Time
Civil Twilight
Nautical Twilight
Astronomical Twilight
Moon
Length of Visible Light
Length of Day
Tomorrow will be .
, % of the Moon is Illuminated

Today's Extremes

State Highs State Lows

Community

WunderPhotos

Upload Photos

1,826,246 photos uploaded!

WunderBlogs® & News

Nearby

Air Quality

  Air Quality AQ Index Pollutant
Not available.

Snow Depth

Station Depth Elevation

Earthquake Activity

City Distance Mag. Time & Date
Minimum magnitude displayed is 2.5.

Coastal Water Temperatures

Place Temperature

Stations

Nearby Weather Stations

Station Location Temp. Windchill Dew Point Humidity Wind Precip. Elev Updated Type